Time;durP1;ratioP1;P1;durP2;ratioP2;P2;SDS_P1;SDS_P2;PMS_P1;PMS_P2;Temp;Humidity;BMP_temperature;BMP_pressure;BME280_temperature;BME280_humidity;BME280_pressure;Samples;Min_cycle;Max_cycle;Signal;HPM_P1;HPM_P2
2021/07/09 00:02:12;;;;;;;18.75;17.17;;;22.70;99.90;;;;;;5109970;22;20055;-84
2021/07/09 00:04:38;;;;;;;19.50;17.85;;;22.70;99.90;;;;;;5093766;28;20032;-84
2021/07/09 00:07:04;;;;;;;19.63;17.73;;;22.70;99.90;;;;;;5090776;28;20092;-84
2021/07/09 00:11:58;;;;;;;18.00;16.40;;;22.70;99.90;;;;;;5097296;22;20444;-83
2021/07/09 00:14:26;;;;;;;18.65;16.95;;;22.80;99.90;;;;;;5096148;28;20127;-84
2021/07/09 00:16:52;;;;;;;18.45;16.85;;;22.80;99.90;;;;;;5091129;28;20032;-83
2021/07/09 00:19:18;;;;;;;19.55;17.88;;;22.80;99.90;;;;;;5093940;28;20012;-85
2021/07/09 00:21:44;;;;;;;18.98;17.38;;;22.80;99.90;;;;;;5092007;28;20028;-84
2021/07/09 00:24:12;;;;;;;19.00;17.20;;;22.90;99.90;;;;;;5096590;22;20028;-85
2021/07/09 00:26:38;;;;;;;19.83;17.92;;;22.80;99.90;;;;;;5079974;22;20076;-84
2021/07/09 00:29:04;;;;;;;20.17;18.20;;;22.80;99.90;;;;;;5063703;22;20098;-85
2021/07/09 00:31:30;;;;;;;21.52;19.42;;;22.80;99.90;;;;;;5098334;22;20052;-85
2021/07/09 00:34:12;;;;;;;21.90;19.75;;;22.70;99.90;;;;;;5093381;28;20012;-85
2021/07/09 00:36:38;;;;;;;21.23;19.23;;;22.70;99.90;;;;;;5097519;22;20032;-84
2021/07/09 00:39:07;;;;;;;21.30;19.23;;;22.70;99.90;;;;;;5100871;22;20048;-83
2021/07/09 00:41:33;;;;;;;21.27;19.38;;;22.70;99.90;;;;;;5087338;28;20527;-84
2021/07/09 00:43:58;;;;;;;21.63;19.55;;;22.60;99.90;;;;;;5093029;28;20020;-84
2021/07/09 00:46:31;;;;;;;22.15;19.92;;;22.60;99.90;;;;;;5094274;28;20033;-84
2021/07/09 00:48:57;;;;;;;21.58;19.70;;;22.60;99.90;;;;;;5092546;28;20012;-86
2021/07/09 00:51:22;;;;;;;21.63;19.73;;;22.60;99.90;;;;;;5093074;28;20196;-84
2021/07/09 00:53:48;;;;;;;21.00;19.10;;;22.60;99.90;;;;;;5089815;28;20035;-84
2021/07/09 00:56:14;;;;;;;21.95;19.92;;;22.60;99.90;;;;;;5089472;28;20033;-84
2021/07/09 00:58:40;;;;;;;21.70;19.90;;;22.60;99.90;;;;;;5094759;28;20009;-84
2021/07/09 01:01:05;;;;;;;21.80;19.90;;;22.60;99.90;;;;;;5091361;28;20044;-84
2021/07/09 01:03:31;;;;;;;21.67;19.65;;;22.60;99.90;;;;;;5092044;28;20024;-83
2021/07/09 01:05:57;;;;;;;21.42;19.38;;;22.50;99.90;;;;;;5091977;28;20044;-85
2021/07/09 01:08:22;;;;;;;20.90;18.90;;;22.60;99.90;;;;;;5093099;28;20028;-86
2021/07/09 01:10:48;;;;;;;19.85;18.25;;;22.60;99.90;;;;;;5088549;28;20033;-83
2021/07/09 01:13:14;;;;;;;20.13;18.17;;;22.50;99.90;;;;;;5092792;28;20036;-85
2021/07/09 01:15:40;;;;;;;19.98;18.05;;;22.40;99.90;;;;;;5096766;22;20067;-84
2021/07/09 01:18:06;;;;;;;19.52;17.67;;;22.40;99.90;;;;;;5085404;28;20008;-85
2021/07/09 01:20:32;;;;;;;19.85;18.17;;;22.30;99.90;;;;;;5090449;28;20088;-84
2021/07/09 01:23:18;;;;;;;20.10;18.23;;;22.30;99.90;;;;;;5093334;22;20040;-85
2021/07/09 01:25:44;;;;;;;20.00;18.20;;;22.30;99.90;;;;;;5089662;28;20020;-84
2021/07/09 01:28:10;;;;;;;19.83;18.13;;;22.20;99.90;;;;;;5086335;28;20013;-83
2021/07/09 01:30:37;;;;;;;18.90;17.40;;;22.10;99.90;;;;;;5095130;22;20036;-84
2021/07/09 01:33:04;;;;;;;17.63;16.13;;;22.10;99.90;;;;;;5080183;22;20106;-84
2021/07/09 01:35:30;;;;;;;18.35;16.75;;;22.10;99.90;;;;;;5090353;28;20384;-84
2021/07/09 01:38:07;;;;;;;18.45;16.92;;;22.00;99.90;;;;;;5088942;28;20029;-86
2021/07/09 01:40:37;;;;;;;20.17;18.48;;;21.90;99.90;;;;;;5091481;28;20031;-84
2021/07/09 01:43:12;;;;;;;20.48;18.38;;;21.90;99.90;;;;;;5090454;28;20464;-84
2021/07/09 01:45:37;;;;;;;;;;;21.90;99.90;;;;;;5087280;28;20028;-83
2021/07/09 01:48:04;;;;;;;19.05;17.55;;;21.90;99.90;;;;;;5091394;28;19893;-84
2021/07/09 01:50:31;;;;;;;20.33;18.45;;;21.90;99.90;;;;;;5099090;22;20139;-85
2021/07/09 01:52:57;;;;;;;20.73;18.92;;;21.80;99.90;;;;;;5092255;28;20415;-83
2021/07/09 01:55:23;;;;;;;20.08;18.45;;;21.80;99.90;;;;;;5092703;28;20025;-85
2021/07/09 01:57:48;;;;;;;20.48;18.58;;;21.80;99.90;;;;;;5095642;28;20039;-84
2021/07/09 02:00:17;;;;;;;19.85;18.05;;;21.80;99.90;;;;;;5098738;22;20044;-84
2021/07/09 02:02:43;;;;;;;19.40;17.35;;;21.70;99.90;;;;;;5096857;22;20032;-85
2021/07/09 02:05:24;;;;;;;20.05;18.40;;;21.70;99.90;;;;;;5090930;28;20058;-84
2021/07/09 02:08:00;;;;;;;20.42;18.63;;;21.70;99.90;;;;;;5088847;28;20044;-85
2021/07/09 02:13:08;;;;;;;21.55;19.52;;;21.50;99.90;;;;;;5100073;22;20029;-85
2021/07/09 02:15:36;;;;;;;19.55;17.85;;;21.50;99.90;;;;;;5089024;28;20028;-84
2021/07/09 02:18:03;;;;;;;20.05;18.25;;;21.50;99.90;;;;;;5088901;28;20035;-86
2021/07/09 02:23:12;;;;;;;18.50;16.95;;;21.50;99.90;;;;;;5091674;22;20028;-84
2021/07/09 02:25:54;;;;;;;18.42;16.70;;;21.50;99.90;;;;;;5088536;28;20029;-83
2021/07/09 02:28:20;;;;;;;18.05;16.55;;;21.50;99.90;;;;;;5086911;28;20033;-88
2021/07/09 02:30:45;;;;;;;19.30;17.52;;;21.50;99.90;;;;;;5091877;22;20024;-87
2021/07/09 02:33:11;;;;;;;19.27;17.52;;;21.50;99.90;;;;;;5088447;28;20040;-85
2021/07/09 02:35:39;;;;;;;17.40;15.82;;;21.50;99.90;;;;;;5093558;22;20052;-85
2021/07/09 02:40:50;;;;;;;18.80;17.08;;;21.60;99.90;;;;;;5115585;22;20560;-86
2021/07/09 02:43:16;;;;;;;19.73;17.70;;;21.70;99.90;;;;;;5091584;28;20032;-84
2021/07/09 02:45:41;;;;;;;18.25;16.63;;;21.70;99.90;;;;;;5091405;28;20040;-84
2021/07/09 02:48:07;;;;;;;19.83;17.83;;;21.70;99.90;;;;;;5088710;28;20082;-84
2021/07/09 02:50:33;;;;;;;18.83;17.02;;;21.70;99.90;;;;;;5094116;22;20036;-84
2021/07/09 02:52:58;;;;;;;19.23;17.33;;;21.60;99.90;;;;;;5067454;28;20127;-85
2021/07/09 02:55:27;;;;;;;18.38;16.67;;;21.50;99.90;;;;;;5070679;28;20025;-84
2021/07/09 02:57:52;;;;;;;18.00;16.33;;;21.50;99.90;;;;;;5070509;28;20093;-85
2021/07/09 03:00:19;;;;;;;18.13;16.55;;;21.50;99.90;;;;;;5064908;23;20033;-85
2021/07/09 03:02:45;;;;;;;17.13;15.73;;;21.40;99.90;;;;;;5111190;22;20119;-88
2021/07/09 03:05:11;;;;;;;16.90;15.50;;;21.40;99.90;;;;;;5097526;28;20036;-84
2021/07/09 03:07:53;;;;;;;19.15;17.55;;;21.30;99.90;;;;;;5094439;28;20027;-85
2021/07/09 03:10:18;;;;;;;20.23;18.35;;;21.30;99.90;;;;;;5097006;28;20016;-84
2021/07/09 03:12:47;;;;;;;19.52;17.73;;;21.30;99.90;;;;;;5094372;22;20012;-83
2021/07/09 03:15:13;;;;;;;19.35;17.42;;;21.30;99.90;;;;;;5078381;23;20036;-85
2021/07/09 03:17:39;;;;;;;18.45;16.95;;;21.20;99.90;;;;;;5072128;28;20031;-86
2021/07/09 03:20:10;;;;;;;18.10;16.60;;;21.20;99.90;;;;;;5069851;28;20021;-84
2021/07/09 03:22:36;;;;;;;18.20;16.60;;;21.20;99.90;;;;;;5073748;28;20008;-85
2021/07/09 03:25:04;;;;;;;18.20;16.60;;;21.10;99.90;;;;;;5070586;28;20044;-85
2021/07/09 03:27:29;;;;;;;18.05;16.40;;;21.20;99.90;;;;;;5066930;28;20004;-84
2021/07/09 03:29:55;;;;;;;18.45;16.85;;;21.10;99.90;;;;;;5067684;28;20115;-88
2021/07/09 03:32:21;;;;;;;17.55;16.05;;;21.10;99.90;;;;;;5071027;28;20021;-89
2021/07/09 03:34:46;;;;;;;17.40;15.85;;;21.00;99.90;;;;;;5067764;28;20024;-84
2021/07/09 03:37:12;;;;;;;17.50;15.93;;;21.00;99.90;;;;;;5069330;28;20029;-85
2021/07/09 03:39:38;;;;;;;17.20;15.60;;;20.90;99.90;;;;;;5067204;28;20134;-85
2021/07/09 03:42:04;;;;;;;17.60;15.80;;;20.90;99.90;;;;;;5069839;28;20024;-85
2021/07/09 03:44:29;;;;;;;17.60;16.00;;;20.90;99.90;;;;;;5069027;28;20004;-85
2021/07/09 03:46:55;;;;;;;17.00;15.40;;;20.90;99.90;;;;;;5071468;28;20068;-85
2021/07/09 03:49:20;;;;;;;17.02;15.60;;;20.90;99.90;;;;;;5072054;28;20009;-86
2021/07/09 03:51:47;;;;;;;17.30;15.63;;;20.80;99.90;;;;;;5073552;28;20005;-84
2021/07/09 03:54:13;;;;;;;16.85;15.20;;;20.80;99.90;;;;;;5072202;28;20015;-85
2021/07/09 03:56:46;;;;;;;17.70;16.00;;;20.80;99.90;;;;;;5086706;28;20095;-85
2021/07/09 03:59:12;;;;;;;17.52;15.73;;;20.80;99.90;;;;;;5076095;28;20042;-85
2021/07/09 04:01:37;;;;;;;17.60;16.02;;;20.80;99.90;;;;;;5074833;28;20035;-88
2021/07/09 04:04:06;;;;;;;21.15;19.05;;;20.80;99.90;;;;;;5071586;28;20025;-85
2021/07/09 04:06:32;;;;;;;19.92;18.13;;;20.90;99.90;;;;;;5072518;28;20021;-86
2021/07/09 04:08:57;;;;;;;19.00;17.30;;;21.00;99.90;;;;;;5075512;28;20036;-84
2021/07/09 04:11:23;;;;;;;21.20;17.30;;;21.00;99.90;;;;;;5074522;28;20024;-86
2021/07/09 04:13:49;;;;;;;18.27;16.48;;;21.10;99.90;;;;;;5072332;28;20052;-84
2021/07/09 04:16:14;;;;;;;19.02;17.23;;;21.10;99.90;;;;;;5074477;28;20016;-87
2021/07/09 04:18:40;;;;;;;17.20;15.48;;;21.20;99.90;;;;;;5070391;28;20424;-85
2021/07/09 04:21:06;;;;;;;17.98;16.27;;;21.30;99.90;;;;;;5068766;28;20058;-88
2021/07/09 04:23:32;;;;;;;18.85;17.05;;;21.30;99.90;;;;;;5068185;28;20020;-90
2021/07/09 04:25:57;;;;;;;19.08;17.23;;;21.50;99.90;;;;;;5068992;28;20453;-89
2021/07/09 04:28:24;;;;;;;19.52;17.70;;;21.50;99.90;;;;;;5071271;28;20028;-85
2021/07/09 04:30:49;;;;;;;18.67;16.70;;;21.60;99.90;;;;;;5063688;28;20017;-85
2021/07/09 04:33:16;;;;;;;17.92;16.33;;;21.70;99.90;;;;;;5066380;28;20028;-84
2021/07/09 04:35:41;;;;;;;13.20;12.00;;;21.80;99.90;;;;;;5062230;28;20025;-82
2021/07/09 04:38:07;;;;;;;16.73;15.00;;;22.10;99.90;;;;;;5059722;28;20067;-82
2021/07/09 04:40:33;;;;;;;41.50;36.95;;;23.20;99.90;;;;;;5063590;28;20043;-85
2021/07/09 04:42:58;;;;;;;33.83;30.10;;;23.80;99.90;;;;;;5059487;28;20391;-84
2021/07/09 04:45:24;;;;;;;16.38;14.60;;;23.90;99.90;;;;;;5059046;28;20024;-79
2021/07/09 04:47:50;;;;;;;16.85;15.35;;;24.00;99.90;;;;;;5058516;28;20028;-78
2021/07/09 04:50:15;;;;;;;17.30;12.60;;;24.30;99.90;;;;;;5058657;28;20529;-79
2021/07/09 04:52:41;;;;;;;13.77;12.38;;;24.30;99.90;;;;;;5061897;28;20543;-79
2021/07/09 04:55:07;;;;;;;15.05;13.45;;;24.30;99.90;;;;;;5076653;28;20035;-81
2021/07/09 04:57:33;;;;;;;13.05;11.73;;;24.30;99.90;;;;;;5058762;28;20017;-79
2021/07/09 04:59:59;;;;;;;14.38;11.25;;;24.30;99.90;;;;;;5058712;28;20064;-78
2021/07/09 05:02:25;;;;;;;12.68;10.93;;;24.50;99.90;;;;;;5076524;28;20082;-79
2021/07/09 05:04:51;;;;;;;10.60;9.60;;;24.60;99.90;;;;;;5058339;28;20062;-78
2021/07/09 05:07:17;;;;;;;14.20;9.25;;;24.40;99.90;;;;;;5058264;28;20056;-77
2021/07/09 05:09:43;;;;;;;10.57;8.65;;;24.60;99.90;;;;;;5075258;28;20048;-78
2021/07/09 05:12:09;;;;;;;12.70;6.78;;;24.50;99.90;;;;;;5058582;28;20075;-78
2021/07/09 05:14:34;;;;;;;10.23;6.57;;;24.70;99.90;;;;;;5054991;28;20045;-79
2021/07/09 05:17:00;;;;;;;7.53;5.25;;;24.80;99.90;;;;;;5055020;28;20078;-76
2021/07/09 05:19:26;;;;;;;7.72;5.53;;;24.90;99.90;;;;;;5054955;28;20036;-78
2021/07/09 05:21:51;;;;;;;6.47;5.53;;;25.20;99.90;;;;;;5055759;28;20535;-77
2021/07/09 05:24:18;;;;;;;6.43;5.45;;;25.20;99.30;;;;;;5054659;28;20061;-77
2021/07/09 05:26:46;;;;;;;7.90;5.50;;;25.40;98.90;;;;;;5054881;28;20116;-77
2021/07/09 05:29:12;;;;;;;6.20;5.57;;;25.50;98.70;;;;;;5054656;28;20476;-79
2021/07/09 05:31:39;;;;;;;5.45;4.60;;;25.50;98.80;;;;;;5054754;28;20029;-80
2021/07/09 05:34:05;;;;;;;6.43;5.38;;;25.50;98.40;;;;;;5054664;28;20021;-77
2021/07/09 05:36:31;;;;;;;8.40;4.50;;;25.60;99.00;;;;;;5054817;28;20048;-77
2021/07/09 05:38:56;;;;;;;8.40;5.38;;;25.50;98.50;;;;;;5054731;28;20372;-77
2021/07/09 05:41:22;;;;;;;5.05;4.55;;;25.60;98.30;;;;;;5054471;28;20033;-78
2021/07/09 05:43:48;;;;;;;7.75;4.72;;;25.60;97.20;;;;;;5054673;28;20092;-80
2021/07/09 05:46:14;;;;;;;8.45;4.88;;;25.70;97.60;;;;;;5054265;28;20036;-77
2021/07/09 05:48:40;;;;;;;6.25;4.82;;;25.70;97.80;;;;;;5054407;28;20029;-82
2021/07/09 05:51:05;;;;;;;5.03;4.13;;;25.80;97.60;;;;;;5055304;28;20029;-77
2021/07/09 05:53:31;;;;;;;4.95;4.30;;;25.90;96.60;;;;;;5053885;28;20032;-78
2021/07/09 05:55:58;;;;;;;5.50;3.70;;;26.00;96.40;;;;;;5054185;28;20032;-79
2021/07/09 05:58:24;;;;;;;9.70;3.80;;;26.20;96.00;;;;;;5054287;28;20025;-79
2021/07/09 06:00:50;;;;;;;5.10;4.22;;;26.40;95.30;;;;;;5053860;28;20029;-79
2021/07/09 06:03:15;;;;;;;8.45;4.00;;;26.50;94.90;;;;;;5054243;28;20032;-81
2021/07/09 06:05:41;;;;;;;4.53;3.92;;;26.60;94.50;;;;;;5054058;28;20029;-79
2021/07/09 06:08:09;;;;;;;9.43;4.20;;;26.60;94.90;;;;;;5054190;28;20070;-82
2021/07/09 06:10:35;;;;;;;6.10;4.50;;;26.70;94.30;;;;;;5053696;28;20111;-80
2021/07/09 06:13:02;;;;;;;6.03;4.32;;;26.80;94.70;;;;;;5054414;28;20025;-83
2021/07/09 06:15:29;;;;;;;5.93;4.70;;;26.70;95.20;;;;;;5054882;28;20064;-85
2021/07/09 06:17:55;;;;;;;8.27;4.82;;;26.60;95.60;;;;;;5054592;28;20098;-85
2021/07/09 06:20:21;;;;;;;13.38;5.15;;;26.80;95.40;;;;;;5054343;28;20080;-85
2021/07/09 06:22:47;;;;;;;7.93;4.72;;;26.80;95.20;;;;;;5054273;28;20035;-85
2021/07/09 06:25:14;;;;;;;5.30;4.45;;;26.70;94.80;;;;;;5055952;28;20111;-83
2021/07/09 06:27:40;;;;;;;6.70;4.28;;;26.60;93.90;;;;;;5055255;28;20017;-84
2021/07/09 06:30:07;;;;;;;7.30;4.85;;;26.60;93.30;;;;;;5054496;28;20460;-84
2021/07/09 06:32:33;;;;;;;13.73;4.85;;;26.60;94.00;;;;;;5054816;28;20071;-84
2021/07/09 06:34:59;;;;;;;7.25;4.30;;;26.60;94.50;;;;;;5054197;28;20574;-85
2021/07/09 06:37:24;;;;;;;6.95;3.83;;;26.70;94.20;;;;;;5054602;28;20053;-84
2021/07/09 06:39:51;;;;;;;5.43;4.20;;;26.90;93.40;;;;;;5054139;28;20044;-85
2021/07/09 06:42:17;;;;;;;10.27;4.47;;;27.00;93.50;;;;;;5053412;28;20029;-86
2021/07/09 06:44:43;;;;;;;5.18;3.90;;;26.70;93.00;;;;;;5053728;28;20021;-85
2021/07/09 06:47:09;;;;;;;5.70;3.80;;;26.70;94.20;;;;;;5053837;28;20028;-84
2021/07/09 06:49:35;;;;;;;6.75;3.88;;;26.90;93.70;;;;;;5053798;28;20025;-81
2021/07/09 06:52:01;;;;;;;4.28;3.60;;;27.10;93.20;;;;;;5053187;28;20032;-80
2021/07/09 06:54:26;;;;;;;5.75;3.67;;;27.20;92.60;;;;;;5053238;28;20025;-80
2021/07/09 06:56:52;;;;;;;5.63;3.70;;;27.40;92.80;;;;;;5053079;28;20025;-81
2021/07/09 06:59:18;;;;;;;6.38;3.40;;;27.50;91.70;;;;;;5053131;28;20021;-82
2021/07/09 07:01:44;;;;;;;6.57;3.80;;;27.60;92.00;;;;;;5053223;28;20035;-81
2021/07/09 07:04:09;;;;;;;7.68;3.50;;;27.60;91.70;;;;;;5053129;28;20021;-80
2021/07/09 07:06:36;;;;;;;4.32;3.42;;;27.70;90.60;;;;;;5053162;28;20021;-81
2021/07/09 07:09:02;;;;;;;3.63;3.20;;;27.80;90.10;;;;;;5053146;28;20492;-80
2021/07/09 07:11:28;;;;;;;5.00;3.40;;;27.90;90.30;;;;;;5053163;28;20056;-82
2021/07/09 07:13:53;;;;;;;4.43;2.92;;;28.00;91.00;;;;;;5052848;28;20053;-81
2021/07/09 07:16:19;;;;;;;6.20;2.85;;;28.00;89.00;;;;;;5053042;28;20017;-81
2021/07/09 07:18:45;;;;;;;8.25;3.65;;;28.10;89.30;;;;;;5053037;28;20036;-81
2021/07/09 07:21:10;;;;;;;7.00;3.05;;;28.10;88.50;;;;;;5053018;28;20040;-81
2021/07/09 07:23:36;;;;;;;4.72;3.40;;;28.00;88.30;;;;;;5053019;28;20017;-81
2021/07/09 07:26:02;;;;;;;3.92;2.97;;;28.10;88.30;;;;;;5052916;28;20384;-80
2021/07/09 07:28:28;;;;;;;5.47;3.30;;;28.00;89.10;;;;;;5052929;28;20075;-84
2021/07/09 07:30:54;;;;;;;6.72;3.35;;;28.20;88.50;;;;;;5052872;28;20486;-81
2021/07/09 07:33:20;;;;;;;4.90;2.95;;;28.10;89.40;;;;;;5052325;28;20116;-79
2021/07/09 07:35:45;;;;;;;9.50;4.07;;;28.00;90.00;;;;;;5052684;28;20025;-81
2021/07/09 07:38:11;;;;;;;7.25;3.20;;;28.10;90.10;;;;;;5052879;28;20032;-81
2021/07/09 07:40:37;;;;;;;11.98;3.58;;;28.20;87.80;;;;;;5052576;28;20399;-80
2021/07/09 07:43:05;;;;;;;6.53;3.50;;;28.30;87.90;;;;;;5052530;28;20031;-81
2021/07/09 07:45:32;;;;;;;3.67;2.75;;;28.30;89.60;;;;;;5052702;28;20029;-79
2021/07/09 07:47:57;;;;;;;3.88;3.03;;;28.40;87.00;;;;;;5052636;28;20108;-81
2021/07/09 07:50:25;;;;;;;6.07;3.10;;;28.30;87.20;;;;;;5052716;28;20052;-80
2021/07/09 07:52:51;;;;;;;6.53;3.15;;;28.30;86.70;;;;;;5052675;28;20071;-83
2021/07/09 07:55:17;;;;;;;6.63;2.80;;;28.40;85.70;;;;;;5052634;28;20032;-80
2021/07/09 07:57:44;;;;;;;7.50;3.10;;;28.50;85.00;;;;;;5052661;28;20021;-82
2021/07/09 08:00:11;;;;;;;5.10;3.15;;;28.60;86.20;;;;;;5052337;28;20090;-79
2021/07/09 08:02:37;;;;;;;9.90;3.45;;;28.20;86.40;;;;;;5052489;28;20487;-82
2021/07/09 08:05:04;;;;;;;4.30;3.10;;;28.30;87.50;;;;;;5052692;28;20029;-82
2021/07/09 08:07:30;;;;;;;3.35;3.00;;;28.20;85.80;;;;;;5052783;28;20032;-81
2021/07/09 08:09:55;;;;;;;5.40;3.00;;;28.20;85.60;;;;;;5052690;28;20025;-83
2021/07/09 08:12:21;;;;;;;10.18;3.55;;;28.40;85.30;;;;;;5051850;28;20025;-81
2021/07/09 08:14:46;;;;;;;7.03;3.03;;;28.20;87.00;;;;;;5052387;28;20069;-81
2021/07/09 08:17:12;;;;;;;5.25;3.50;;;28.40;86.00;;;;;;5053473;28;20025;-81
2021/07/09 08:19:38;;;;;;;6.03;3.30;;;28.50;84.30;;;;;;5052419;28;20033;-82
2021/07/09 08:22:04;;;;;;;7.05;3.13;;;28.70;84.60;;;;;;5052488;28;20033;-81
2021/07/09 08:24:30;;;;;;;5.22;2.92;;;28.90;84.30;;;;;;5053429;28;20033;-79
2021/07/09 08:26:55;;;;;;;5.97;3.15;;;28.80;83.00;;;;;;5052356;28;20131;-82
2021/07/09 08:29:21;;;;;;;5.07;3.33;;;28.60;82.20;;;;;;5052312;28;20017;-80
2021/07/09 08:31:47;;;;;;;6.88;3.47;;;28.60;82.70;;;;;;5051930;28;20480;-81
2021/07/09 08:34:12;;;;;;;6.80;3.58;;;28.60;83.50;;;;;;5052283;28;20021;-81
2021/07/09 08:36:38;;;;;;;10.23;3.58;;;28.90;83.10;;;;;;5052240;28;20021;-81
2021/07/09 08:39:04;;;;;;;11.55;3.45;;;29.00;83.40;;;;;;5052312;28;20033;-81
2021/07/09 08:41:32;;;;;;;5.07;3.30;;;28.60;82.30;;;;;;5051796;28;20036;-80
2021/07/09 08:43:57;;;;;;;3.20;2.90;;;28.70;81.90;;;;;;5052258;28;20111;-79
2021/07/09 08:46:26;;;;;;;7.97;3.45;;;28.80;82.10;;;;;;5056976;28;20459;-83
2021/07/09 08:48:52;;;;;;;6.35;3.75;;;28.90;83.20;;;;;;5055272;28;20354;-86
2021/07/09 08:51:18;;;;;;;6.03;3.53;;;29.00;81.00;;;;;;5055821;28;20061;-84
2021/07/09 08:53:44;;;;;;;6.90;3.45;;;29.00;80.50;;;;;;5055726;28;20052;-81
2021/07/09 08:56:10;;;;;;;4.82;3.30;;;29.10;80.60;;;;;;5055571;28;20036;-80
2021/07/09 08:58:36;;;;;;;5.28;3.72;;;29.00;80.30;;;;;;5055257;28;20108;-80
2021/07/09 09:01:04;;;;;;;4.20;3.50;;;28.90;80.10;;;;;;5056323;28;20104;-80
2021/07/09 09:03:30;;;;;;;4.53;3.10;;;28.90;80.80;;;;;;5055499;28;20060;-80
2021/07/09 09:06:00;;;;;;;6.30;3.40;;;29.10;81.30;;;;;;5055205;28;20059;-81
2021/07/09 09:08:32;;;;;;;3.95;3.13;;;29.20;80.70;;;;;;5055447;28;20060;-79
2021/07/09 09:10:59;;;;;;;4.75;3.13;;;29.60;80.50;;;;;;5055229;28;20369;-81
2021/07/09 09:13:26;;;;;;;6.13;3.20;;;29.60;78.80;;;;;;5056489;28;20021;-87
2021/07/09 09:16:06;;;;;;;8.70;3.42;;;29.70;77.60;;;;;;5055310;28;20040;-87
2021/07/09 09:18:37;;;;;;;5.57;3.17;;;29.60;79.30;;;;;;5055117;28;20451;-86
2021/07/09 09:21:17;;;;;;;8.63;3.30;;;29.50;78.30;;;;;;5054989;28;20492;-84
2021/07/09 09:23:51;;;;;;;3.88;2.92;;;29.40;79.80;;;;;;5055159;28;20025;-80
2021/07/09 09:26:40;;;;;;;3.80;2.85;;;29.70;78.10;;;;;;5055037;28;20415;-80
2021/07/09 09:29:07;;;;;;;6.40;3.08;;;29.50;77.40;;;;;;5041889;28;20112;-80
2021/07/09 09:31:35;;;;;;;5.30;3.35;;;29.40;78.90;;;;;;5054826;28;20021;-84
2021/07/09 09:34:03;;;;;;;5.90;3.28;;;29.40;78.30;;;;;;5056099;28;20420;-79
2021/07/09 09:36:29;;;;;;;8.60;3.65;;;29.40;80.20;;;;;;5054827;28;20025;-78
2021/07/09 09:38:56;;;;;;;6.95;3.50;;;29.20;77.30;;;;;;5054758;28;20031;-81
2021/07/09 09:41:21;;;;;;;7.40;3.42;;;29.30;79.30;;;;;;5054624;28;20466;-81
2021/07/09 09:43:47;;;;;;;5.78;3.10;;;29.60;79.20;;;;;;5054789;28;20116;-79
2021/07/09 09:46:16;;;;;;;5.60;3.00;;;29.80;77.10;;;;;;5054712;28;20024;-85
2021/07/09 09:48:47;;;;;;;6.68;3.13;;;29.70;76.90;;;;;;5054825;28;20017;-80
2021/07/09 09:51:26;;;;;;;6.57;3.30;;;29.40;77.40;;;;;;5055704;28;20067;-81
2021/07/09 09:54:04;;;;;;;5.88;3.08;;;29.60;80.20;;;;;;5054478;28;20079;-82
2021/07/09 09:56:34;;;;;;;8.75;3.10;;;29.90;78.30;;;;;;5053986;28;20025;-81
2021/07/09 09:59:12;;;;;;;4.47;3.17;;;30.30;77.30;;;;;;5054376;28;20032;-85
2021/07/09 10:01:37;;;;;;;4.20;3.22;;;30.50;74.20;;;;;;5054242;28;20154;-82
2021/07/09 10:04:03;;;;;;;11.63;2.97;;;30.00;75.20;;;;;;5054324;28;20055;-82
2021/07/09 10:06:29;;;;;;;4.18;3.20;;;30.10;74.60;;;;;;5054201;28;20053;-82
2021/07/09 10:08:56;;;;;;;4.22;2.95;;;30.10;75.50;;;;;;5054141;28;20365;-86
2021/07/09 10:11:24;;;;;;;4.13;2.40;;;30.00;73.70;;;;;;5054039;28;20055;-88
2021/07/09 10:13:50;;;;;;;5.82;2.70;;;29.90;73.30;;;;;;5054045;28;20096;-86
2021/07/09 10:16:17;;;;;;;24.48;3.30;;;29.80;74.20;;;;;;5055122;28;20541;-83
2021/07/09 10:18:43;;;;;;;6.93;2.70;;;29.60;74.30;;;;;;5054103;28;20070;-87
2021/07/09 10:21:09;;;;;;;6.55;2.90;;;29.50;74.40;;;;;;5054031;28;20491;-82
2021/07/09 10:23:35;;;;;;;3.00;2.70;;;29.50;76.90;;;;;;5054017;28;20051;-84
2021/07/09 10:26:01;;;;;;;2.67;2.38;;;29.50;77.10;;;;;;5054065;28;20029;-87
2021/07/09 10:28:27;;;;;;;5.22;2.50;;;29.70;75.10;;;;;;5054815;28;20052;-85
2021/07/09 10:30:53;;;;;;;5.45;2.58;;;29.90;75.00;;;;;;5054998;28;20021;-83
2021/07/09 10:33:37;;;;;;;6.10;2.78;;;30.30;73.10;;;;;;5054673;28;20032;-83
2021/07/09 10:36:28;;;;;;;6.97;2.70;;;30.60;71.30;;;;;;5054843;28;20067;-87
2021/07/09 10:38:54;;;;;;;3.03;2.25;;;30.60;72.00;;;;;;5065116;28;20013;-87
2021/07/09 10:41:22;;;;;;;3.53;2.10;;;30.80;70.70;;;;;;5055914;28;20114;-89
2021/07/09 10:44:16;;;;;;;3.75;1.85;;;30.50;68.90;;;;;;5052083;28;20022;-86
2021/07/09 10:46:43;;;;;;;3.97;2.10;;;30.30;69.60;;;;;;5041063;28;20083;-88
2021/07/09 10:49:09;;;;;;;2.97;1.60;;;29.60;70.80;;;;;;5034180;28;20033;-88
2021/07/09 10:51:53;;;;;;;3.20;1.90;;;29.50;72.10;;;;;;5033509;28;20061;-87
2021/07/09 10:54:27;;;;;;;2.77;1.67;;;29.50;73.30;;;;;;5033315;28;20044;-83
2021/07/09 10:57:21;;;;;;;4.68;1.88;;;29.20;73.50;;;;;;5033661;28;20079;-88
2021/07/09 11:00:21;;;;;;;4.78;1.80;;;29.00;73.30;;;;;;5030475;28;20049;-85
2021/07/09 11:03:00;;;;;;;4.03;1.60;;;28.50;74.40;;;;;;5033300;28;20057;-83
2021/07/09 11:05:43;;;;;;;8.32;2.10;;;28.60;75.70;;;;;;5034878;28;20045;-79
2021/07/09 11:08:34;;;;;;;5.20;1.70;;;28.60;76.40;;;;;;5032572;28;20036;-80
2021/07/09 11:11:14;;;;;;;2.25;1.48;;;28.60;75.00;;;;;;5034625;28;20052;-81
2021/07/09 11:13:44;;;;;;;2.70;1.90;;;28.50;75.20;;;;;;5035195;28;20033;-86
2021/07/09 11:16:24;;;;;;;6.35;1.88;;;28.10;75.20;;;;;;5054600;28;20028;-87
2021/07/09 11:18:59;;;;;;;3.42;1.83;;;28.10;76.90;;;;;;5035998;28;20123;-85
2021/07/09 11:21:31;;;;;;;5.97;1.60;;;28.10;76.70;;;;;;5036453;28;20078;-85
2021/07/09 11:23:57;;;;;;;3.13;1.60;;;28.30;76.70;;;;;;5038612;28;20025;-85
2021/07/09 11:26:28;;;;;;;3.45;1.52;;;28.20;77.40;;;;;;5036630;28;20021;-86
2021/07/09 11:28:57;;;;;;;5.00;1.50;;;28.20;76.10;;;;;;5036479;28;20112;-85
2021/07/09 11:31:33;;;;;;;4.50;1.50;;;28.00;77.00;;;;;;5036495;28;20112;-84
2021/07/09 11:34:16;;;;;;;2.33;1.58;;;27.50;75.80;;;;;;5036741;28;20032;-83
2021/07/09 11:36:47;;;;;;;4.80;2.05;;;26.70;77.00;;;;;;5036414;28;20044;-87
2021/07/09 11:39:21;;;;;;;6.10;1.80;;;26.30;79.10;;;;;;5036248;28;20079;-82
2021/07/09 11:42:07;;;;;;;3.05;1.40;;;25.80;80.50;;;;;;5036218;28;20049;-83
2021/07/09 11:44:40;;;;;;;2.42;1.60;;;25.40;80.00;;;;;;5036009;28;20029;-82
2021/07/09 11:47:09;;;;;;;2.45;1.38;;;25.10;80.10;;;;;;5036249;28;20085;-83
2021/07/09 11:49:37;;;;;;;3.83;1.70;;;25.00;81.30;;;;;;5036304;28;20392;-84
2021/07/09 11:52:06;;;;;;;2.50;1.80;;;25.10;80.40;;;;;;5036312;28;20021;-81
2021/07/09 11:54:46;;;;;;;3.50;1.80;;;25.10;81.50;;;;;;5036398;28;20547;-81
2021/07/09 11:57:14;;;;;;;4.18;1.80;;;25.00;82.10;;;;;;5036387;28;20056;-81
2021/07/09 11:59:43;;;;;;;1.77;1.30;;;24.90;82.30;;;;;;5035990;28;20025;-82
2021/07/09 12:02:10;;;;;;;4.50;2.20;;;25.00;82.40;;;;;;5036099;28;20142;-82
2021/07/09 12:04:42;;;;;;;4.22;2.00;;;24.70;85.10;;;;;;5036137;28;20500;-81
2021/07/09 12:07:28;;;;;;;5.57;2.00;;;24.50;87.50;;;;;;5036323;28;20353;-82
2021/07/09 12:10:07;;;;;;;4.90;1.98;;;24.10;89.70;;;;;;5036210;28;20025;-84
2021/07/09 12:12:38;;;;;;;3.70;1.90;;;23.60;90.40;;;;;;5035886;28;20472;-85
2021/07/09 12:15:11;;;;;;;3.97;2.13;;;23.60;91.30;;;;;;5053542;28;20056;-84
2021/07/09 12:18:03;;;;;;;3.17;1.90;;;24.20;90.70;;;;;;5035876;28;20025;-83
2021/07/09 12:20:35;;;;;;;4.07;1.85;;;24.70;89.40;;;;;;5039489;28;20029;-84
2021/07/09 12:23:14;;;;;;;2.72;2.08;;;24.90;87.20;;;;;;5039991;28;20029;-83
2021/07/09 12:25:44;;;;;;;2.80;1.92;;;24.70;88.00;;;;;;5039651;28;20082;-84
2021/07/09 12:28:21;;;;;;;7.70;2.17;;;24.50;90.00;;;;;;5039717;28;20032;-85
2021/07/09 12:30:49;;;;;;;4.35;2.25;;;24.30;90.30;;;;;;5039461;28;20384;-85
2021/07/09 12:33:18;;;;;;;2.67;1.92;;;24.40;91.20;;;;;;5039788;28;20078;-86
2021/07/09 12:35:44;;;;;;;3.70;2.00;;;24.70;90.40;;;;;;5039652;28;20087;-86
2021/07/09 12:38:12;;;;;;;2.15;1.83;;;25.00;89.30;;;;;;5039684;28;20024;-84
2021/07/09 12:40:42;;;;;;;1.90;1.70;;;24.80;89.00;;;;;;5039436;28;20427;-84
2021/07/09 12:43:27;;;;;;;3.92;1.85;;;24.70;90.00;;;;;;5039351;28;20071;-83
2021/07/09 12:45:56;;;;;;;2.47;1.73;;;24.70;89.70;;;;;;5039159;28;20049;-86
2021/07/09 12:48:33;;;;;;;2.38;2.00;;;24.70;90.20;;;;;;5039269;28;20092;-84
2021/07/09 12:50:59;;;;;;;2.55;1.55;;;24.70;87.80;;;;;;5039162;28;20017;-84
2021/07/09 12:53:26;;;;;;;3.72;1.77;;;24.70;87.30;;;;;;5039209;28;20051;-85
2021/07/09 12:55:53;;;;;;;2.95;1.75;;;24.90;89.30;;;;;;5039408;28;20067;-84